Flying H, New Mexico
Current Conditions -  °F | °C
As of 1:35 PM on Wednesday 26 Nov 2014 (Local Time) from KALM Reporting Station
Clear Clear  
Wind Chill: 64°   Ceiling: Unl
Heat Index: 64°   Visibility: 10mi
Dew Point: 21°   Wind: 15mph
Humidity: 19%   Direction: 320°NW
Pressure: 30.27"   Gusts: 22mph
Location:  32.9146°N, 105.46°W
Report Text: KALM 262035Z AUTO 32013G19KT 10SM CLR 18/M06 A3027 RMK AO2
Loading
Personal Weather Stations






























Interactive Weather Map New forecast layout! Learn more

10-Day Weather Forecast

Advertisements
Track Severe Weather on mobile